sensor_id;sensor_type;location;lat;lon;timestamp;pressure;altitude;pressure_sealevel;temperature;humidity
54453;BME280;40363;52.270;10.546;2023-02-17T00:02:13;77241.63;;;-147.06;91.00
54453;BME280;40363;52.270;10.546;2023-02-17T00:04:40;77251.91;;;-147.06;90.80
54453;BME280;40363;52.270;10.546;2023-02-17T00:07:06;77237.53;;;-147.06;90.65
54453;BME280;40363;52.270;10.546;2023-02-17T00:09:35;77233.41;;;-147.06;90.42
54453;BME280;40363;52.270;10.546;2023-02-17T00:12:02;77235.47;;;-147.06;90.17
54453;BME280;40363;52.270;10.546;2023-02-17T00:14:29;77233.41;;;-147.06;90.16
54453;BME280;40363;52.270;10.546;2023-02-17T00:16:55;77221.06;;;-147.06;89.65
54453;BME280;40363;52.270;10.546;2023-02-17T00:19:22;77214.91;;;-147.06;89.16
54453;BME280;40363;52.270;10.546;2023-02-17T00:21:49;77219.03;;;-147.06;89.33
54453;BME280;40363;52.270;10.546;2023-02-17T00:24:16;77221.06;;;-147.06;89.37
54453;BME280;40363;52.270;10.546;2023-02-17T00:26:44;77210.78;;;-147.06;89.24
54453;BME280;40363;52.270;10.546;2023-02-17T00:29:11;77214.91;;;-147.06;89.71
54453;BME280;40363;52.270;10.546;2023-02-17T00:31:37;77212.84;;;-147.06;89.65
54453;BME280;40363;52.270;10.546;2023-02-17T00:34:04;77216.97;;;-147.06;89.47
54453;BME280;40363;52.270;10.546;2023-02-17T00:36:30;77210.78;;;-147.06;89.70
54453;BME280;40363;52.270;10.546;2023-02-17T00:38:57;77212.84;;;-147.06;89.81
54453;BME280;40363;52.270;10.546;2023-02-17T00:41:25;77212.84;;;-147.06;89.89
54453;BME280;40363;52.270;10.546;2023-02-17T00:43:53;77208.75;;;-147.06;89.99
54453;BME280;40363;52.270;10.546;2023-02-17T00:46:20;77196.41;;;-147.06;89.69
54453;BME280;40363;52.270;10.546;2023-02-17T00:48:47;77194.34;;;-147.06;89.94
54453;BME280;40363;52.270;10.546;2023-02-17T00:51:15;77177.91;;;-147.06;89.79
54453;BME280;40363;52.270;10.546;2023-02-17T00:53:42;77188.19;;;-147.06;89.93
54453;BME280;40363;52.270;10.546;2023-02-17T00:56:09;77192.28;;;-147.06;89.81
54453;BME280;40363;52.270;10.546;2023-02-17T00:58:37;77190.22;;;-147.06;89.95
54453;BME280;40363;52.270;10.546;2023-02-17T01:01:07;77179.97;;;-147.06;89.89
54453;BME280;40363;52.270;10.546;2023-02-17T01:03:34;77179.97;;;-147.06;89.79
54453;BME280;40363;52.270;10.546;2023-02-17T01:06:05;77179.97;;;-147.06;89.90
54453;BME280;40363;52.270;10.546;2023-02-17T01:08:32;77175.84;;;-147.06;90.09
54453;BME280;40363;52.270;10.546;2023-02-17T01:10:58;77175.84;;;-147.06;90.21
54453;BME280;40363;52.270;10.546;2023-02-17T01:13:25;77163.50;;;-147.06;90.83
54453;BME280;40363;52.270;10.546;2023-02-17T01:15:52;77171.72;;;-147.06;90.97
54453;BME280;40363;52.270;10.546;2023-02-17T01:18:22;77169.69;;;-147.06;90.84
54453;BME280;40363;52.270;10.546;2023-02-17T01:20:49;77165.56;;;-147.06;91.24
54453;BME280;40363;52.270;10.546;2023-02-17T01:23:16;77163.50;;;-147.06;91.34
54453;BME280;40363;52.270;10.546;2023-02-17T01:25:44;77155.28;;;-147.06;91.26
54453;BME280;40363;52.270;10.546;2023-02-17T01:28:15;77149.13;;;-147.06;91.37
54453;BME280;40363;52.270;10.546;2023-02-17T01:30:42;77151.19;;;-147.06;91.45
54453;BME280;40363;52.270;10.546;2023-02-17T01:33:08;77151.19;;;-147.06;91.82
54453;BME280;40363;52.270;10.546;2023-02-17T01:35:36;77153.22;;;-147.06;91.97
54453;BME280;40363;52.270;10.546;2023-02-17T01:38:03;77145.00;;;-147.06;91.88
54453;BME280;40363;52.270;10.546;2023-02-17T01:40:30;77142.97;;;-147.06;91.95
54453;BME280;40363;52.270;10.546;2023-02-17T01:42:56;77142.97;;;-147.06;92.24
54453;BME280;40363;52.270;10.546;2023-02-17T01:45:40;77130.63;;;-147.06;92.08
54453;BME280;40363;52.270;10.546;2023-02-17T01:48:13;77132.69;;;-147.06;92.53
54453;BME280;40363;52.270;10.546;2023-02-17T01:50:45;77118.28;;;-147.06;92.28
54453;BME280;40363;52.270;10.546;2023-02-17T01:53:13;77124.44;;;-147.06;92.77
54453;BME280;40363;52.270;10.546;2023-02-17T01:55:43;77114.19;;;-147.06;92.86
54453;BME280;40363;52.270;10.546;2023-02-17T01:58:14;77114.19;;;-147.06;92.91
54453;BME280;40363;52.270;10.546;2023-02-17T02:00:41;77105.94;;;-147.06;93.10
54453;BME280;40363;52.270;10.546;2023-02-17T02:03:09;77103.91;;;-147.06;93.62
54453;BME280;40363;52.270;10.546;2023-02-17T02:05:40;77103.91;;;-147.06;93.99
54453;BME280;40363;52.270;10.546;2023-02-17T02:08:09;77099.78;;;-147.06;94.29
54453;BME280;40363;52.270;10.546;2023-02-17T02:10:36;77097.72;;;-147.06;94.42
54453;BME280;40363;52.270;10.546;2023-02-17T02:13:03;77085.41;;;-147.06;94.36
54453;BME280;40363;52.270;10.546;2023-02-17T02:15:33;77085.41;;;-147.06;94.57
54453;BME280;40363;52.270;10.546;2023-02-17T02:18:12;77081.28;;;-147.06;94.54
54453;BME280;40363;52.270;10.546;2023-02-17T02:27:20;77081.28;;;-147.06;95.48
54453;BME280;40363;52.270;10.546;2023-02-17T02:30:00;77085.41;;;-147.06;95.79
54453;BME280;40363;52.270;10.546;2023-02-17T02:32:47;77087.44;;;-147.06;96.01
54453;BME280;40363;52.270;10.546;2023-02-17T02:35:21;77095.69;;;-147.06;96.46
54453;BME280;40363;52.270;10.546;2023-02-17T02:37:54;77091.56;;;-147.06;96.59
54453;BME280;40363;52.270;10.546;2023-02-17T02:40:23;77095.69;;;-147.06;96.70
54453;BME280;40363;52.270;10.546;2023-02-17T02:42:53;77099.78;;;-147.06;96.77
54453;BME280;40363;52.270;10.546;2023-02-17T02:45:21;77091.56;;;-147.06;96.82
54453;BME280;40363;52.270;10.546;2023-02-17T02:47:50;77083.34;;;-147.06;96.70
54453;BME280;40363;52.270;10.546;2023-02-17T02:50:20;77089.50;;;-147.06;97.12
54453;BME280;40363;52.270;10.546;2023-02-17T02:53:06;77091.56;;;-147.06;97.48
54453;BME280;40363;52.270;10.546;2023-02-17T02:55:43;77083.34;;;-147.06;97.44
54453;BME280;40363;52.270;10.546;2023-02-17T02:58:17;77083.34;;;-147.06;97.44
54453;BME280;40363;52.270;10.546;2023-02-17T03:00:51;77085.41;;;-147.06;97.60
54453;BME280;40363;52.270;10.546;2023-02-17T03:03:28;77075.13;;;-147.06;97.65
54453;BME280;40363;52.270;10.546;2023-02-17T03:06:06;77075.13;;;-147.06;97.88
54453;BME280;40363;52.270;10.546;2023-02-17T03:08:37;77075.13;;;-147.06;97.97
54453;BME280;40363;52.270;10.546;2023-02-17T03:11:06;77062.78;;;-147.06;97.85
54453;BME280;40363;52.270;10.546;2023-02-17T03:13:33;77068.94;;;-147.06;98.22
54453;BME280;40363;52.270;10.546;2023-02-17T03:16:04;77077.19;;;-147.06;98.42
54453;BME280;40363;52.270;10.546;2023-02-17T03:18:32;77068.94;;;-147.06;98.54
54453;BME280;40363;52.270;10.546;2023-02-17T03:21:03;77062.78;;;-147.06;98.92
54453;BME280;40363;52.270;10.546;2023-02-17T03:23:31;77056.63;;;-147.06;98.72
54453;BME280;40363;52.270;10.546;2023-02-17T03:25:58;77056.63;;;-147.06;98.92
54453;BME280;40363;52.270;10.546;2023-02-17T03:28:24;77046.34;;;-147.06;98.65
54453;BME280;40363;52.270;10.546;2023-02-17T03:30:51;77052.50;;;-147.06;98.92
54453;BME280;40363;52.270;10.546;2023-02-17T03:33:18;77054.56;;;-147.06;99.20
54453;BME280;40363;52.270;10.546;2023-02-17T03:35:46;77050.44;;;-147.06;99.44
54453;BME280;40363;52.270;10.546;2023-02-17T03:38:12;77046.34;;;-147.06;99.70
54453;BME280;40363;52.270;10.546;2023-02-17T03:40:39;77042.22;;;-147.06;99.90
54453;BME280;40363;52.270;10.546;2023-02-17T03:43:05;77034.00;;;-147.06;99.76
54453;BME280;40363;52.270;10.546;2023-02-17T03:45:34;77027.84;;;-147.06;99.85
54453;BME280;40363;52.270;10.546;2023-02-17T03:48:01;77023.72;;;-147.06;99.69
54453;BME280;40363;52.270;10.546;2023-02-17T03:50:27;77027.84;;;-147.06;99.87
54453;BME280;40363;52.270;10.546;2023-02-17T03:52:55;77017.56;;;-147.06;100.00
54453;BME280;40363;52.270;10.546;2023-02-17T03:55:22;77013.44;;;-147.06;100.00
54453;BME280;40363;52.270;10.546;2023-02-17T03:57:48;77019.63;;;-147.06;100.00
54453;BME280;40363;52.270;10.546;2023-02-17T04:00:16;77021.66;;;-147.06;100.00
54453;BME280;40363;52.270;10.546;2023-02-17T04:02:42;77007.28;;;-147.06;100.00
54453;BME280;40363;52.270;10.546;2023-02-17T04:05:09;77003.16;;;-147.06;100.00
54453;BME280;40363;52.270;10.546;2023-02-17T04:07:36;76992.88;;;-147.06;100.00
54453;BME280;40363;52.270;10.546;2023-02-17T04:10:06;76980.56;;;-147.06;100.00
54453;BME280;40363;52.270;10.546;2023-02-17T04:12:32;76974.38;;;-147.06;100.00
54453;BME280;40363;52.270;10.546;2023-02-17T04:14:59;76978.50;;;-147.06;100.00
54453;BME280;40363;52.270;10.546;2023-02-17T04:17:25;76970.28;;;-147.06;100.00
54453;BME280;40363;52.270;10.546;2023-02-17T04:19:52;76978.50;;;-147.06;100.00
54453;BME280;40363;52.270;10.546;2023-02-17T04:22:19;76974.38;;;-147.06;100.00
54453;BME280;40363;52.270;10.546;2023-02-17T04:24:45;76978.50;;;-147.06;100.00
54453;BME280;40363;52.270;10.546;2023-02-17T04:27:13;76982.63;;;-147.06;100.00
54453;BME280;40363;52.270;10.546;2023-02-17T04:29:40;76990.84;;;-147.06;100.00
54453;BME280;40363;52.270;10.546;2023-02-17T04:32:06;76990.84;;;-147.06;100.00
54453;BME280;40363;52.270;10.546;2023-02-17T04:34:33;76986.72;;;-147.06;100.00
54453;BME280;40363;52.270;10.546;2023-02-17T04:36:59;76986.72;;;-147.06;100.00
54453;BME280;40363;52.270;10.546;2023-02-17T04:39:26;76986.72;;;-147.06;100.00
54453;BME280;40363;52.270;10.546;2023-02-17T04:41:53;76974.38;;;-147.06;100.00
54453;BME280;40363;52.270;10.546;2023-02-17T04:44:21;76970.28;;;-147.06;100.00
54453;BME280;40363;52.270;10.546;2023-02-17T04:46:47;76986.72;;;-147.06;100.00
54453;BME280;40363;52.270;10.546;2023-02-17T04:49:14;76978.50;;;-147.06;100.00
54453;BME280;40363;52.270;10.546;2023-02-17T04:51:40;76982.63;;;-147.06;100.00
54453;BME280;40363;52.270;10.546;2023-02-17T04:54:07;76970.28;;;-147.06;100.00
54453;BME280;40363;52.270;10.546;2023-02-17T04:56:33;76978.50;;;-147.06;100.00
54453;BME280;40363;52.270;10.546;2023-02-17T04:59:00;76974.38;;;-147.06;100.00
54453;BME280;40363;52.270;10.546;2023-02-17T05:01:28;76964.13;;;-147.06;100.00
54453;BME280;40363;52.270;10.546;2023-02-17T05:03:54;76988.78;;;-147.06;100.00
54453;BME280;40363;52.270;10.546;2023-02-17T05:06:21;76970.28;;;-147.06;100.00
54453;BME280;40363;52.270;10.546;2023-02-17T05:08:48;76980.56;;;-147.06;100.00
54453;BME280;40363;52.270;10.546;2023-02-17T05:11:15;76978.50;;;-147.06;100.00
54453;BME280;40363;52.270;10.546;2023-02-17T05:13:41;76972.34;;;-147.06;100.00
54453;BME280;40363;52.270;10.546;2023-02-17T05:16:08;76974.38;;;-147.06;100.00
54453;BME280;40363;52.270;10.546;2023-02-17T05:18:36;76966.16;;;-147.06;100.00
54453;BME280;40363;52.270;10.546;2023-02-17T05:21:03;76972.34;;;-147.06;100.00
54453;BME280;40363;52.270;10.546;2023-02-17T05:23:30;76972.34;;;-147.06;100.00
54453;BME280;40363;52.270;10.546;2023-02-17T05:25:57;76974.38;;;-147.06;100.00
54453;BME280;40363;52.270;10.546;2023-02-17T05:28:24;76970.28;;;-147.06;100.00
54453;BME280;40363;52.270;10.546;2023-02-17T05:30:50;76966.16;;;-147.06;100.00
54453;BME280;40363;52.270;10.546;2023-02-17T05:33:17;76960.00;;;-147.06;100.00
54453;BME280;40363;52.270;10.546;2023-02-17T05:35:45;76957.94;;;-147.06;100.00
54453;BME280;40363;52.270;10.546;2023-02-17T05:38:11;76957.94;;;-147.06;100.00
54453;BME280;40363;52.270;10.546;2023-02-17T05:40:38;76962.06;;;-147.06;100.00
54453;BME280;40363;52.270;10.546;2023-02-17T05:43:04;76955.88;;;-147.06;100.00
54453;BME280;40363;52.270;10.546;2023-02-17T05:45:31;76962.06;;;-147.06;100.00
54453;BME280;40363;52.270;10.546;2023-02-17T05:47:58;76957.94;;;-147.06;100.00
54453;BME280;40363;52.270;10.546;2023-02-17T05:50:24;76939.44;;;-147.06;100.00
54453;BME280;40363;52.270;10.546;2023-02-17T05:52:52;76937.38;;;-147.06;100.00
54453;BME280;40363;52.270;10.546;2023-02-17T05:55:19;76937.38;;;-147.06;100.00
54453;BME280;40363;52.270;10.546;2023-02-17T05:57:47;76941.50;;;-147.06;100.00
54453;BME280;40363;52.270;10.546;2023-02-17T06:00:14;76929.16;;;-147.06;100.00
54453;BME280;40363;52.270;10.546;2023-02-17T06:02:41;76920.94;;;-147.06;100.00
54453;BME280;40363;52.270;10.546;2023-02-17T06:05:07;76933.28;;;-147.06;100.00
54453;BME280;40363;52.270;10.546;2023-02-17T06:07:34;76920.94;;;-147.06;100.00
54453;BME280;40363;52.270;10.546;2023-02-17T06:10:02;76916.84;;;-147.06;100.00
54453;BME280;40363;52.270;10.546;2023-02-17T06:12:29;76916.84;;;-147.06;100.00
54453;BME280;40363;52.270;10.546;2023-02-17T06:14:56;76914.78;;;-147.06;100.00
54453;BME280;40363;52.270;10.546;2023-02-17T06:17:22;76912.72;;;-147.06;100.00
54453;BME280;40363;52.270;10.546;2023-02-17T06:19:49;76916.84;;;-147.06;100.00
54453;BME280;40363;52.270;10.546;2023-02-17T06:22:16;76914.78;;;-147.06;100.00
54453;BME280;40363;52.270;10.546;2023-02-17T06:24:42;76910.66;;;-147.06;100.00
54453;BME280;40363;52.270;10.546;2023-02-17T06:27:10;76896.28;;;-147.06;100.00
54453;BME280;40363;52.270;10.546;2023-02-17T06:29:37;76900.38;;;-147.06;100.00
54453;BME280;40363;52.270;10.546;2023-02-17T06:32:04;76892.16;;;-147.06;100.00
54453;BME280;40363;52.270;10.546;2023-02-17T06:34:30;76883.94;;;-147.06;100.00
54453;BME280;40363;52.270;10.546;2023-02-17T06:36:57;76888.06;;;-147.06;100.00
54453;BME280;40363;52.270;10.546;2023-02-17T06:39:23;76881.88;;;-147.06;100.00
54453;BME280;40363;52.270;10.546;2023-02-17T06:41:50;76875.72;;;-147.06;100.00
54453;BME280;40363;52.270;10.546;2023-02-17T06:44:18;76867.50;;;-147.06;100.00
54453;BME280;40363;52.270;10.546;2023-02-17T06:46:45;76867.50;;;-147.06;100.00
54453;BME280;40363;52.270;10.546;2023-02-17T06:49:12;76863.38;;;-147.06;100.00
54453;BME280;40363;52.270;10.546;2023-02-17T06:51:39;76867.50;;;-147.06;100.00
54453;BME280;40363;52.270;10.546;2023-02-17T06:54:06;76863.38;;;-147.06;100.00
54453;BME280;40363;52.270;10.546;2023-02-17T06:56:32;76855.16;;;-147.06;100.00
54453;BME280;40363;52.270;10.546;2023-02-17T06:59:00;76853.13;;;-147.06;100.00
54453;BME280;40363;52.270;10.546;2023-02-17T07:01:28;76846.94;;;-147.06;100.00
54453;BME280;40363;52.270;10.546;2023-02-17T07:03:55;76838.72;;;-147.06;100.00
54453;BME280;40363;52.270;10.546;2023-02-17T07:06:22;76824.34;;;-147.06;100.00
54453;BME280;40363;52.270;10.546;2023-02-17T07:08:49;76830.50;;;-147.06;100.00
54453;BME280;40363;52.270;10.546;2023-02-17T07:11:17;76822.28;;;-147.06;100.00
54453;BME280;40363;52.270;10.546;2023-02-17T07:13:43;76816.13;;;-147.06;100.00
54453;BME280;40363;52.270;10.546;2023-02-17T07:16:12;76822.28;;;-147.06;100.00
54453;BME280;40363;52.270;10.546;2023-02-17T07:18:40;76801.72;;;-147.06;100.00
54453;BME280;40363;52.270;10.546;2023-02-17T07:21:08;76789.38;;;-147.06;100.00
54453;BME280;40363;52.270;10.546;2023-02-17T07:23:34;76781.16;;;-147.06;100.00
54453;BME280;40363;52.270;10.546;2023-02-17T07:26:03;76793.50;;;-147.06;100.00
54453;BME280;40363;52.270;10.546;2023-02-17T07:28:29;76791.44;;;-147.06;100.00
54453;BME280;40363;52.270;10.546;2023-02-17T07:30:56;76789.38;;;-147.06;100.00
54453;BME280;40363;52.270;10.546;2023-02-17T07:33:23;76785.28;;;-147.06;100.00
54453;BME280;40363;52.270;10.546;2023-02-17T07:35:51;76781.16;;;-147.06;100.00
54453;BME280;40363;52.270;10.546;2023-02-17T07:38:18;76781.16;;;-147.06;100.00
54453;BME280;40363;52.270;10.546;2023-02-17T07:40:44;76758.56;;;-147.06;100.00
54453;BME280;40363;52.270;10.546;2023-02-17T07:43:11;76748.28;;;-147.06;100.00
54453;BME280;40363;52.270;10.546;2023-02-17T07:45:38;76742.09;;;-147.06;100.00
54453;BME280;40363;52.270;10.546;2023-02-17T07:48:04;76746.22;;;-147.06;100.00
54453;BME280;40363;52.270;10.546;2023-02-17T07:50:31;76723.63;;;-147.06;99.85
54453;BME280;40363;52.270;10.546;2023-02-17T07:52:59;76723.63;;;-147.06;99.20
54453;BME280;40363;52.270;10.546;2023-02-17T07:55:25;76705.13;;;-147.06;98.78
54453;BME280;40363;52.270;10.546;2023-02-17T07:57:52;76688.66;;;-147.06;98.42
54453;BME280;40363;52.270;10.546;2023-02-17T08:00:19;76688.66;;;-147.06;97.75
54453;BME280;40363;52.270;10.546;2023-02-17T08:02:46;76682.50;;;-147.06;97.45
54453;BME280;40363;52.270;10.546;2023-02-17T08:05:12;76680.44;;;-147.06;97.02
54453;BME280;40363;52.270;10.546;2023-02-17T08:07:39;76666.06;;;-147.06;96.55
54453;BME280;40363;52.270;10.546;2023-02-17T08:10:10;76647.56;;;-147.06;95.74
54453;BME280;40363;52.270;10.546;2023-02-17T08:12:55;76653.72;;;-147.06;95.20
54453;BME280;40363;52.270;10.546;2023-02-17T08:15:39;76643.44;;;-147.06;94.77
54453;BME280;40363;52.270;10.546;2023-02-17T08:18:05;76629.06;;;-147.06;94.22
54453;BME280;40363;52.270;10.546;2023-02-17T08:20:32;76624.94;;;-147.06;93.87
54453;BME280;40363;52.270;10.546;2023-02-17T08:22:59;76629.06;;;-147.06;93.74
54453;BME280;40363;52.270;10.546;2023-02-17T08:25:31;76608.50;;;-147.06;93.27
54453;BME280;40363;52.270;10.546;2023-02-17T08:27:58;76610.56;;;-147.06;92.68
54453;BME280;40363;52.270;10.546;2023-02-17T08:30:25;76606.44;;;-147.06;92.56
54453;BME280;40363;52.270;10.546;2023-02-17T08:32:51;76598.22;;;-147.06;92.15
54453;BME280;40363;52.270;10.546;2023-02-17T08:35:18;76587.94;;;-147.06;91.56
54453;BME280;40363;52.270;10.546;2023-02-17T08:37:46;76592.06;;;-147.06;91.31
54453;BME280;40363;52.270;10.546;2023-02-17T08:40:13;76585.91;;;-147.06;90.98
54453;BME280;40363;52.270;10.546;2023-02-17T08:42:41;76569.44;;;-147.06;90.61
54453;BME280;40363;52.270;10.546;2023-02-17T08:45:08;76567.41;;;-147.06;90.55
54453;BME280;40363;52.270;10.546;2023-02-17T08:47:35;76555.06;;;-147.06;90.30
54453;BME280;40363;52.270;10.546;2023-02-17T08:50:03;76536.56;;;-147.06;89.86
54453;BME280;40363;52.270;10.546;2023-02-17T08:52:30;76546.84;;;-147.06;89.81
54453;BME280;40363;52.270;10.546;2023-02-17T08:54:57;76546.84;;;-147.06;89.85
54453;BME280;40363;52.270;10.546;2023-02-17T08:57:24;76548.91;;;-147.06;90.09
54453;BME280;40363;52.270;10.546;2023-02-17T08:59:52;76534.50;;;-147.06;89.90
54453;BME280;40363;52.270;10.546;2023-02-17T09:02:19;76536.56;;;-147.06;89.51
54453;BME280;40363;52.270;10.546;2023-02-17T09:04:46;76524.22;;;-147.06;89.30
54453;BME280;40363;52.270;10.546;2023-02-17T09:07:13;76524.22;;;-147.06;89.53
54453;BME280;40363;52.270;10.546;2023-02-17T09:09:41;76501.63;;;-147.06;88.97
54453;BME280;40363;52.270;10.546;2023-02-17T09:12:08;76513.97;;;-147.06;89.24
54453;BME280;40363;52.270;10.546;2023-02-17T09:14:34;76501.63;;;-147.06;89.18
54453;BME280;40363;52.270;10.546;2023-02-17T09:17:02;76483.13;;;-147.06;89.26
54453;BME280;40363;52.270;10.546;2023-02-17T09:19:29;76485.19;;;-147.06;89.07
54453;BME280;40363;52.270;10.546;2023-02-17T09:21:56;76497.50;;;-147.06;89.29
54453;BME280;40363;52.270;10.546;2023-02-17T09:24:23;76489.28;;;-147.06;89.39
54453;BME280;40363;52.270;10.546;2023-02-17T09:26:49;76485.19;;;-147.06;88.98
54453;BME280;40363;52.270;10.546;2023-02-17T09:29:16;76483.13;;;-147.06;89.38
54453;BME280;40363;52.270;10.546;2023-02-17T09:31:42;76476.97;;;-147.06;89.63
54453;BME280;40363;52.270;10.546;2023-02-17T09:34:11;76474.91;;;-147.06;89.57
54453;BME280;40363;52.270;10.546;2023-02-17T09:36:40;76472.84;;;-147.06;89.29
54453;BME280;40363;52.270;10.546;2023-02-17T09:39:07;76470.78;;;-147.06;89.36
54453;BME280;40363;52.270;10.546;2023-02-17T09:41:38;76470.78;;;-147.06;89.74
54453;BME280;40363;52.270;10.546;2023-02-17T09:44:16;76462.56;;;-147.06;89.47
54453;BME280;40363;52.270;10.546;2023-02-17T09:46:48;76462.56;;;-147.06;89.55
54453;BME280;40363;52.270;10.546;2023-02-17T09:49:20;76458.47;;;-147.06;89.58
54453;BME280;40363;52.270;10.546;2023-02-17T09:51:50;76452.28;;;-147.06;89.79
54453;BME280;40363;52.270;10.546;2023-02-17T09:54:25;76444.06;;;-147.06;89.99
54453;BME280;40363;52.270;10.546;2023-02-17T09:56:55;76437.91;;;-147.06;90.04
54453;BME280;40363;52.270;10.546;2023-02-17T09:59:26;76423.53;;;-147.06;89.71
54453;BME280;40363;52.270;10.546;2023-02-17T10:01:55;76419.41;;;-147.06;89.51
54453;BME280;40363;52.270;10.546;2023-02-17T10:04:27;76415.31;;;-147.06;89.37
54453;BME280;40363;52.270;10.546;2023-02-17T10:06:58;76411.19;;;-147.06;89.24
54453;BME280;40363;52.270;10.546;2023-02-17T10:09:30;76402.97;;;-147.06;89.41
54453;BME280;40363;52.270;10.546;2023-02-17T10:12:01;76398.84;;;-147.06;89.30
54453;BME280;40363;52.270;10.546;2023-02-17T10:14:32;76386.53;;;-147.06;89.48
54453;BME280;40363;52.270;10.546;2023-02-17T10:17:04;76378.31;;;-147.06;88.94
54453;BME280;40363;52.270;10.546;2023-02-17T10:19:38;76374.19;;;-147.06;89.05
54453;BME280;40363;52.270;10.546;2023-02-17T10:22:10;76372.13;;;-147.06;89.25
54453;BME280;40363;52.270;10.546;2023-02-17T10:24:38;76370.09;;;-147.06;89.54
54453;BME280;40363;52.270;10.546;2023-02-17T10:27:23;76351.59;;;-147.06;89.55
54453;BME280;40363;52.270;10.546;2023-02-17T10:30:03;76345.41;;;-147.06;89.58
54453;BME280;40363;52.270;10.546;2023-02-17T10:32:43;76345.41;;;-147.06;89.67
54453;BME280;40363;52.270;10.546;2023-02-17T10:35:14;76343.38;;;-147.06;89.90
54453;BME280;40363;52.270;10.546;2023-02-17T10:37:46;76333.09;;;-147.06;90.20
54453;BME280;40363;52.270;10.546;2023-02-17T10:40:19;76322.81;;;-147.06;90.20
54453;BME280;40363;52.270;10.546;2023-02-17T10:42:48;76318.69;;;-147.06;90.38
54453;BME280;40363;52.270;10.546;2023-02-17T10:45:23;76324.88;;;-147.06;90.79
54453;BME280;40363;52.270;10.546;2023-02-17T10:47:54;76324.88;;;-147.06;91.38
54453;BME280;40363;52.270;10.546;2023-02-17T10:50:24;76322.81;;;-147.06;91.36
54453;BME280;40363;52.270;10.546;2023-02-17T10:52:52;76316.66;;;-147.06;91.48
54453;BME280;40363;52.270;10.546;2023-02-17T10:55:28;76312.53;;;-147.06;91.67
54453;BME280;40363;52.270;10.546;2023-02-17T10:58:02;76312.53;;;-147.06;91.99
54453;BME280;40363;52.270;10.546;2023-02-17T11:00:30;76316.66;;;-147.06;92.08
54453;BME280;40363;52.270;10.546;2023-02-17T11:02:57;76318.69;;;-147.06;92.30
54453;BME280;40363;52.270;10.546;2023-02-17T11:05:28;76291.97;;;-147.06;92.38
54453;BME280;40363;52.270;10.546;2023-02-17T11:07:56;76285.81;;;-147.06;92.28
54453;BME280;40363;52.270;10.546;2023-02-17T11:10:27;76285.81;;;-147.06;92.43
54453;BME280;40363;52.270;10.546;2023-02-17T11:12:54;76259.09;;;-147.06;92.01
54453;BME280;40363;52.270;10.546;2023-02-17T11:15:26;76257.03;;;-147.06;91.79
54453;BME280;40363;52.270;10.546;2023-02-17T11:17:53;76250.88;;;-147.06;92.07
54453;BME280;40363;52.270;10.546;2023-02-17T11:20:31;76248.81;;;-147.06;91.93
54453;BME280;40363;52.270;10.546;2023-02-17T11:23:04;76238.53;;;-147.06;91.74
54453;BME280;40363;52.270;10.546;2023-02-17T11:25:34;76234.44;;;-147.06;91.65
54453;BME280;40363;52.270;10.546;2023-02-17T11:28:04;76232.38;;;-147.06;91.57
54453;BME280;40363;52.270;10.546;2023-02-17T11:30:33;76236.50;;;-147.06;91.45
54453;BME280;40363;52.270;10.546;2023-02-17T11:33:11;76230.31;;;-147.06;91.47
54453;BME280;40363;52.270;10.546;2023-02-17T11:35:49;76226.22;;;-147.06;91.65
54453;BME280;40363;52.270;10.546;2023-02-17T11:38:17;76230.31;;;-147.06;91.47
54453;BME280;40363;52.270;10.546;2023-02-17T11:40:52;76211.81;;;-147.06;91.09
54453;BME280;40363;52.270;10.546;2023-02-17T11:43:19;76185.09;;;-147.06;90.22
54453;BME280;40363;52.270;10.546;2023-02-17T11:45:53;76166.63;;;-147.06;89.63
54453;BME280;40363;52.270;10.546;2023-02-17T11:48:36;76148.13;;;-147.06;88.38
54453;BME280;40363;52.270;10.546;2023-02-17T11:51:09;76127.56;;;-147.06;87.63
54453;BME280;40363;52.270;10.546;2023-02-17T11:53:47;76125.50;;;-147.06;87.28
54453;BME280;40363;52.270;10.546;2023-02-17T11:56:17;76127.56;;;-147.06;87.00
54453;BME280;40363;52.270;10.546;2023-02-17T11:58:57;76107.00;;;-147.06;86.23
54453;BME280;40363;52.270;10.546;2023-02-17T12:01:43;76090.56;;;-147.06;85.74
54453;BME280;40363;52.270;10.546;2023-02-17T12:04:20;76070.00;;;-147.06;85.23
54453;BME280;40363;52.270;10.546;2023-02-17T12:07:01;76057.69;;;-147.06;84.45
54453;BME280;40363;52.270;10.546;2023-02-17T12:09:35;76049.47;;;-147.06;83.99
54453;BME280;40363;52.270;10.546;2023-02-17T12:12:13;76043.31;;;-147.06;83.84
54453;BME280;40363;52.270;10.546;2023-02-17T12:14:56;76049.47;;;-147.06;83.68
54453;BME280;40363;52.270;10.546;2023-02-17T12:17:33;76041.25;;;-147.06;83.08
54453;BME280;40363;52.270;10.546;2023-02-17T12:20:09;;;;-147.06;
54453;BME280;40363;52.270;10.546;2023-02-17T12:22:52;76030.97;;;-147.06;81.45
54453;BME280;40363;52.270;10.546;2023-02-17T12:25:25;76018.63;;;-147.06;80.51
54453;BME280;40363;52.270;10.546;2023-02-17T12:28:04;76016.59;;;-147.06;80.30
54453;BME280;40363;52.270;10.546;2023-02-17T12:30:46;75998.09;;;-147.06;79.61
54453;BME280;40363;52.270;10.546;2023-02-17T12:33:37;75977.53;;;-147.06;79.18
54453;BME280;40363;52.270;10.546;2023-02-17T12:36:08;75987.81;;;-147.06;78.46
54453;BME280;40363;52.270;10.546;2023-02-17T12:38:41;75985.75;;;-147.06;78.42
54453;BME280;40363;52.270;10.546;2023-02-17T12:41:12;76004.25;;;-147.06;78.45
54453;BME280;40363;52.270;10.546;2023-02-17T12:43:43;76004.25;;;-147.06;78.14
54453;BME280;40363;52.270;10.546;2023-02-17T12:46:15;76000.16;;;-147.06;77.41